Time;durP1;ratioP1;P1;durP2;ratioP2;P2;SDS_P1;SDS_P2;PMS_P1;PMS_P2;Temp;Humidity;BMP_temperature;BMP_pressure;BME280_temperature;BME280_humidity;BME280_pressure;Samples;Min_cycle;Max_cycle;Signal;HPM_P1;HPM_P2
2022/10/23 00:02:14;;;;;;;;;;;24.10;99.90;;;;;;4994798;28;20260;-49
2022/10/23 00:04:39;;;;;;;;;;;24.10;99.90;;;;;;4994709;28;19968;-50
2022/10/23 00:12:27;;;;;;;;;;;24.00;99.90;;;;;;5386210;23;20304;-48
2022/10/23 00:14:52;;;;;;;;;;;24.00;99.90;;;;;;5014885;28;19928;-48
2022/10/23 00:17:18;;;;;;;;;;;24.00;99.90;;;;;;5014997;28;19905;-48
2022/10/23 00:19:43;;;;;;;;;;;23.90;99.90;;;;;;5014784;28;19906;-49
2022/10/23 00:22:10;;;;;;;;;;;23.90;99.90;;;;;;5014719;28;20337;-49
2022/10/23 00:24:35;;;;;;;;;;;23.90;99.90;;;;;;5014760;28;19917;-48
2022/10/23 00:27:01;;;;;;;;;;;23.90;99.90;;;;;;5014710;28;20388;-49
2022/10/23 00:29:27;;;;;;;;;;;23.90;99.90;;;;;;5014784;28;19909;-49
2022/10/23 00:31:52;;;;;;;;;;;23.90;99.90;;;;;;5014739;28;19959;-49
2022/10/23 00:34:18;;;;;;;;;;;23.90;99.90;;;;;;5014771;28;19905;-48
2022/10/23 00:36:44;;;;;;;;;;;23.90;99.90;;;;;;5014435;28;19956;-48
2022/10/23 00:39:09;;;;;;;;;;;23.90;99.90;;;;;;5014654;28;19967;-49
2022/10/23 00:41:35;;;;;;;;;;;23.90;99.90;;;;;;5014441;28;19905;-49
2022/10/23 00:44:07;;;;;;;;;;;23.90;99.90;;;;;;5014339;28;19917;-49
2022/10/23 00:46:33;;;;;;;;;;;23.90;99.90;;;;;;5014478;28;19905;-49
2022/10/23 00:48:59;;;;;;;;;;;23.90;99.90;;;;;;5014529;28;19905;-49
2022/10/23 00:51:26;;;;;;;;;;;23.90;99.90;;;;;;5014359;28;20257;-48
2022/10/23 00:53:55;;;;;;;;;;;23.80;99.90;;;;;;5014276;28;19906;-49
2022/10/23 00:56:21;;;;;;;;;;;23.80;99.90;;;;;;5014364;28;20094;-49
2022/10/23 00:58:46;;;;;;;;;;;23.80;99.90;;;;;;5014172;28;20357;-49
2022/10/23 01:01:17;;;;;;;;;;;23.80;99.90;;;;;;5014052;28;19906;-49
2022/10/23 01:03:42;;;;;;;;;;;23.70;99.90;;;;;;5014128;28;19917;-49
2022/10/23 01:06:08;;;;;;;;;;;23.70;99.90;;;;;;5014101;28;20368;-49
2022/10/23 01:08:37;;;;;;;;;;;23.70;99.90;;;;;;5014121;28;19906;-49
2022/10/23 01:11:16;;;;;;;;;;;23.70;99.90;;;;;;5014597;28;19916;-49
2022/10/23 01:13:46;;;;;;;;;;;23.70;99.90;;;;;;5013988;28;20385;-48
2022/10/23 01:16:31;;;;;;;;;;;23.70;99.90;;;;;;5013997;28;19992;-48
2022/10/23 01:19:10;;;;;;;;;;;23.70;99.90;;;;;;5013288;28;19905;-49
2022/10/23 01:21:48;;;;;;;;;;;23.70;99.90;;;;;;5013908;28;19906;-48
2022/10/23 01:24:13;;;;;;;;;;;23.60;99.90;;;;;;5013710;28;19918;-48
2022/10/23 01:27:05;;;;;;;;;;;23.60;99.90;;;;;;5013622;28;19997;-49
2022/10/23 01:29:35;;;;;;;;;;;23.60;99.90;;;;;;4990563;28;19905;-50
2022/10/23 01:32:20;;;;;;;;;;;23.60;99.90;;;;;;5013779;28;20016;-49
2022/10/23 01:35:09;;;;;;;;;;;23.60;99.90;;;;;;5013399;28;19905;-48
2022/10/23 01:37:38;;;;;;;;;;;23.60;99.90;;;;;;5013686;28;19905;-48
2022/10/23 01:40:07;;;;;;;;;;;23.60;99.90;;;;;;5013692;28;19912;-48
2022/10/23 01:42:37;;;;;;;;;;;23.60;99.90;;;;;;5013520;28;20346;-49
2022/10/23 01:45:06;;;;;;;;;;;23.60;99.90;;;;;;5013235;28;20250;-48
2022/10/23 01:47:33;;;;;;;;;;;23.60;99.90;;;;;;5013482;28;20341;-49
2022/10/23 01:50:00;;;;;;;;;;;23.60;99.90;;;;;;5012699;28;19928;-49
2022/10/23 01:52:26;;;;;;;;;;;23.50;99.90;;;;;;5013261;28;19912;-49
2022/10/23 01:54:54;;;;;;;;;;;23.60;99.90;;;;;;5013738;28;19905;-49
2022/10/23 01:57:20;;;;;;;;;;;23.50;99.90;;;;;;5013224;28;19909;-49
2022/10/23 01:59:49;;;;;;;;;;;23.50;99.90;;;;;;5013222;28;19909;-50
2022/10/23 02:02:15;;;;;;;;;;;23.50;99.90;;;;;;5013060;28;20389;-49
2022/10/23 02:04:50;;;;;;;;;;;23.50;99.90;;;;;;5012918;28;19921;-49
2022/10/23 02:07:15;;;;;;;;;;;23.50;99.90;;;;;;5011594;28;19968;-49
2022/10/23 02:09:41;;;;;;;;;;;23.50;99.90;;;;;;5013044;28;19912;-49
2022/10/23 02:12:08;;;;;;;;;;;23.50;99.90;;;;;;5013594;28;20043;-48
2022/10/23 02:14:50;;;;;;;;;;;23.50;99.90;;;;;;5012974;28;19905;-49
2022/10/23 02:17:18;;;;;;;;;;;23.50;99.90;;;;;;5012931;28;19932;-49
2022/10/23 02:20:01;;;;;;;;;;;23.50;99.90;;;;;;5012975;28;20340;-49
2022/10/23 02:22:29;;;;;;;;;;;23.50;99.90;;;;;;5012780;28;19905;-49
2022/10/23 02:25:08;;;;;;;;;;;23.50;99.90;;;;;;5013133;28;19920;-49
2022/10/23 02:27:33;;;;;;;;;;;23.40;99.90;;;;;;5028230;28;20277;-49
2022/10/23 02:30:09;;;;;;;;;;;23.40;99.90;;;;;;5012833;28;19909;-49
2022/10/23 02:32:36;;;;;;;;;;;23.40;99.90;;;;;;5012576;28;19905;-49
2022/10/23 02:35:01;;;;;;;;;;;23.40;99.90;;;;;;5012506;28;19905;-49
2022/10/23 02:37:27;;;;;;;;;;;23.40;99.90;;;;;;5012786;28;19909;-49
2022/10/23 02:39:53;;;;;;;;;;;23.40;99.90;;;;;;5012833;28;19905;-49
2022/10/23 02:42:22;;;;;;;;;;;23.40;99.90;;;;;;5013717;28;19976;-49
2022/10/23 02:44:59;;;;;;;;;;;23.40;99.90;;;;;;5012197;28;20381;-49
2022/10/23 02:47:39;;;;;;;;;;;23.40;99.90;;;;;;5012663;28;19917;-49
2022/10/23 02:50:21;;;;;;;;;;;23.40;99.90;;;;;;5012319;28;19927;-48
2022/10/23 02:52:52;;;;;;;;;;;23.40;99.90;;;;;;5012341;28;19912;-49
2022/10/23 02:55:20;;;;;;;;;;;23.40;99.90;;;;;;5012334;28;19913;-49
2022/10/23 02:57:49;;;;;;;;;;;23.40;99.90;;;;;;5012201;28;20008;-49
2022/10/23 03:00:15;;;;;;;;;;;23.40;99.90;;;;;;5012293;28;19911;-49
2022/10/23 03:02:49;;;;;;;;;;;23.40;99.90;;;;;;5030944;28;19956;-49
2022/10/23 03:05:17;;;;;;;;;;;23.40;99.90;;;;;;5015999;28;19919;-49
2022/10/23 03:07:43;;;;;;;;;;;23.40;99.90;;;;;;5016174;28;19906;-49
2022/10/23 03:10:09;;;;;;;;;;;23.40;99.90;;;;;;5014955;28;19905;-49
2022/10/23 03:12:34;;;;;;;;;;;23.40;99.90;;;;;;5026497;23;20399;-54
2022/10/23 03:15:00;;;;;;;;;;;23.40;99.90;;;;;;5015979;28;20353;-53
2022/10/23 03:17:26;;;;;;;;;;;23.40;99.90;;;;;;5016184;28;19912;-54
2022/10/23 03:19:51;;;;;;;;;;;23.40;99.90;;;;;;5015889;28;19905;-53
2022/10/23 03:22:17;;;;;;;;;;;23.40;99.90;;;;;;5015838;28;19913;-53
2022/10/23 03:24:42;;;;;;;;;;;23.40;99.90;;;;;;5031134;28;20388;-53
2022/10/23 03:27:10;;;;;;;;;;;23.40;99.90;;;;;;5014590;28;19999;-54
2022/10/23 03:29:36;;;;;;;;;;;23.40;99.90;;;;;;5016038;28;19991;-53
2022/10/23 03:32:01;;;;;;;;;;;23.40;99.90;;;;;;5015880;28;19956;-52
2022/10/23 03:34:27;;;;;;;;;;;23.40;99.90;;;;;;5016305;28;19928;-51
2022/10/23 03:36:52;;;;;;;;;;;23.40;99.90;;;;;;5015940;28;19932;-52
2022/10/23 03:39:18;;;;;;;;;;;23.40;99.90;;;;;;5015850;28;20353;-51
2022/10/23 03:41:44;;;;;;;;;;;23.40;99.90;;;;;;5015690;28;20273;-52
2022/10/23 03:44:09;;;;;;;;;;;23.40;99.90;;;;;;5015761;28;19920;-52
2022/10/23 03:46:35;;;;;;;;;;;23.40;99.90;;;;;;5014004;28;19905;-51
2022/10/23 03:49:00;;;;;;;;;;;23.40;99.90;;;;;;5015373;28;20016;-51
2022/10/23 03:51:26;;;;;;;;;;;23.40;99.90;;;;;;5014367;28;20361;-51
2022/10/23 03:53:52;;;;;;;;;;;23.40;99.90;;;;;;5015030;28;19952;-52
2022/10/23 03:56:17;;;;;;;;;;;23.40;99.90;;;;;;5015333;28;19905;-52
2022/10/23 03:58:43;;;;;;;;;;;23.40;99.90;;;;;;5015293;28;20336;-52
2022/10/23 04:01:09;;;;;;;;;;;23.40;99.90;;;;;;5015453;28;20312;-52
2022/10/23 04:03:34;;;;;;;;;;;23.40;99.90;;;;;;5015101;28;19999;-53
2022/10/23 04:06:00;;;;;;;;;;;23.40;99.90;;;;;;5015531;28;19905;-52
2022/10/23 04:08:25;;;;;;;;;;;23.40;99.90;;;;;;5014791;28;19915;-52
2022/10/23 04:10:51;;;;;;;;;;;23.40;99.90;;;;;;5015100;28;19916;-52
2022/10/23 04:13:17;;;;;;;;;;;23.40;99.90;;;;;;5014223;28;20417;-52
2022/10/23 04:15:49;;;;;;;;;;;23.40;99.90;;;;;;5014688;28;19983;-52
2022/10/23 04:18:15;;;;;;;;;;;23.40;99.90;;;;;;5014869;28;19912;-53
2022/10/23 04:20:40;;;;;;;;;;;23.40;99.90;;;;;;5014766;28;19906;-52
2022/10/23 04:23:06;;;;;;;;;;;23.40;99.90;;;;;;5029963;28;19912;-53
2022/10/23 04:25:31;;;;;;;;;;;23.30;99.90;;;;;;5014561;28;19913;-53
2022/10/23 04:27:57;;;;;;;;;;;23.30;99.90;;;;;;5014668;28;19951;-53
2022/10/23 04:30:22;;;;;;;;;;;23.30;99.90;;;;;;5014744;28;20349;-53
2022/10/23 04:32:51;;;;;;;;;;;23.30;99.90;;;;;;5013069;28;19905;-52
2022/10/23 04:35:18;;;;;;;;;;;23.30;99.90;;;;;;5014469;28;19952;-52
2022/10/23 04:37:44;;;;;;;;;;;23.30;99.90;;;;;;5014577;28;20265;-52
2022/10/23 04:40:09;;;;;;;;;;;23.30;99.90;;;;;;5014241;28;19913;-52
2022/10/23 04:42:35;;;;;;;;;;;23.30;99.90;;;;;;5014495;28;19913;-53
2022/10/23 04:45:01;;;;;;;;;;;23.20;99.90;;;;;;5014522;28;19920;-53
2022/10/23 04:47:26;;;;;;;;;;;23.20;99.90;;;;;;5014017;28;20011;-53
2022/10/23 04:49:52;;;;;;;;;;;23.20;99.90;;;;;;5014301;28;20361;-53
2022/10/23 04:52:17;;;;;;;;;;;23.20;99.90;;;;;;5014082;28;19911;-53
2022/10/23 04:54:43;;;;;;;;;;;23.20;99.90;;;;;;5014007;28;19905;-53
2022/10/23 04:57:08;;;;;;;;;;;23.20;99.90;;;;;;5014035;28;20395;-53
2022/10/23 04:59:34;;;;;;;;;;;23.20;99.90;;;;;;5012995;28;19928;-53
2022/10/23 05:02:00;;;;;;;;;;;23.20;99.90;;;;;;5014015;28;19905;-53
2022/10/23 05:04:25;;;;;;;;;;;23.20;99.90;;;;;;5012645;28;19963;-53
2022/10/23 05:06:51;;;;;;;;;;;23.20;99.90;;;;;;5014029;28;19913;-53
2022/10/23 05:09:16;;;;;;;;;;;23.20;99.90;;;;;;5013693;28;19905;-54
2022/10/23 05:11:42;;;;;;;;;;;23.20;99.90;;;;;;5013674;28;19909;-53
2022/10/23 05:14:08;;;;;;;;;;;23.20;99.90;;;;;;5013778;28;19905;-53
2022/10/23 05:16:41;;;;;;;;;;;23.20;99.90;;;;;;5013710;28;20001;-53
2022/10/23 05:19:09;;;;;;;;;;;23.20;99.90;;;;;;5013641;28;19905;-53
2022/10/23 05:21:35;;;;;;;;;;;23.20;99.90;;;;;;5013990;28;19905;-53
2022/10/23 05:24:01;;;;;;;;;;;23.20;99.90;;;;;;5012905;28;20360;-53
2022/10/23 05:26:27;;;;;;;;;;;23.20;99.90;;;;;;5013509;28;19940;-53
2022/10/23 05:28:53;;;;;;;;;;;23.20;99.90;;;;;;5013417;28;19905;-53
2022/10/23 05:31:20;;;;;;;;;;;23.20;99.90;;;;;;5013099;28;19905;-53
2022/10/23 05:33:45;;;;;;;;;;;23.20;99.90;;;;;;5012027;28;19928;-53
2022/10/23 05:36:12;;;;;;;;;;;23.10;99.90;;;;;;5013422;28;20354;-53
2022/10/23 05:38:37;;;;;;;;;;;23.20;99.90;;;;;;5012961;28;20345;-53
2022/10/23 05:41:03;;;;;;;;;;;23.10;99.90;;;;;;5012354;28;19912;-52
2022/10/23 05:43:30;;;;;;;;;;;23.10;99.90;;;;;;5013123;28;19913;-52
2022/10/23 05:45:56;;;;;;;;;;;23.10;99.90;;;;;;5012963;28;19922;-52
2022/10/23 05:48:22;;;;;;;;;;;23.10;99.90;;;;;;5013304;28;19910;-52
2022/10/23 05:50:47;;;;;;;;;;;23.10;99.90;;;;;;5013118;28;19960;-52
2022/10/23 05:53:13;;;;;;;;;;;23.10;99.90;;;;;;5012848;28;19909;-52
2022/10/23 05:55:39;;;;;;;;;;;23.10;99.90;;;;;;5012991;28;19905;-52
2022/10/23 05:58:04;;;;;;;;;;;23.10;99.90;;;;;;5011881;28;19932;-53
2022/10/23 06:00:30;;;;;;;;;;;23.10;99.90;;;;;;5013096;28;19995;-53
2022/10/23 06:02:58;;;;;;;;;;;23.10;99.90;;;;;;5012690;28;19909;-53
2022/10/23 06:05:24;;;;;;;;;;;23.10;99.90;;;;;;5012727;28;20258;-52
2022/10/23 06:07:49;;;;;;;;;;;23.00;99.90;;;;;;5012841;28;19905;-53
2022/10/23 06:10:15;;;;;;;;;;;23.00;99.90;;;;;;5012679;28;19960;-53
2022/10/23 06:12:40;;;;;;;;;;;23.10;99.90;;;;;;5012730;28;20389;-53
2022/10/23 06:15:06;;;;;;;;;;;23.00;99.90;;;;;;5012916;28;20305;-53
2022/10/23 06:17:32;;;;;;;;;;;23.00;99.90;;;;;;5012558;28;19905;-52
2022/10/23 06:20:01;;;;;;;;;;;23.00;99.90;;;;;;5012663;28;19906;-53
2022/10/23 06:22:29;;;;;;;;;;;23.00;99.90;;;;;;5012497;28;19905;-53
2022/10/23 06:24:55;;;;;;;;;;;23.10;99.90;;;;;;5012443;28;20004;-53
2022/10/23 06:27:21;;;;;;;;;;;23.00;99.90;;;;;;5012577;28;19992;-53
2022/10/23 06:29:46;;;;;;;;;;;23.00;99.90;;;;;;5012462;28;19905;-54
2022/10/23 06:32:12;;;;;;;;;;;23.00;99.90;;;;;;5012654;28;19961;-53
2022/10/23 06:34:37;;;;;;;;;;;23.00;99.90;;;;;;5011338;28;19905;-52
2022/10/23 06:37:03;;;;;;;;;;;23.00;99.90;;;;;;5012427;28;20368;-53
2022/10/23 06:39:28;;;;;;;;;;;23.00;99.90;;;;;;5012359;28;20005;-52
2022/10/23 06:41:54;;;;;;;;;;;23.00;99.90;;;;;;5012390;28;20043;-52
2022/10/23 06:44:20;;;;;;;;;;;23.00;99.90;;;;;;5012386;28;19913;-53
2022/10/23 06:46:46;;;;;;;;;;;23.00;99.90;;;;;;5012109;28;19941;-53
2022/10/23 06:49:15;;;;;;;;;;;23.00;99.90;;;;;;5012388;28;19906;-52
2022/10/23 06:51:40;;;;;;;;;;;23.00;99.90;;;;;;5012537;28;19912;-53
2022/10/23 06:54:06;;;;;;;;;;;23.00;99.90;;;;;;5012527;28;19906;-53
2022/10/23 06:56:33;;;;;;;;;;;23.00;99.90;;;;;;5012213;28;19901;-52
2022/10/23 06:59:00;;;;;;;;;;;23.00;99.90;;;;;;5012423;28;19913;-52
2022/10/23 07:01:25;;;;;;;;;;;23.00;99.90;;;;;;5012035;28;20369;-53
2022/10/23 07:03:51;;;;;;;;;;;23.00;99.90;;;;;;5012157;28;19911;-52
2022/10/23 07:06:16;;;;;;;;;;;23.00;99.90;;;;;;5012266;28;20313;-52
2022/10/23 07:08:42;;;;;;;;;;;23.00;99.90;;;;;;5027219;28;19914;-53
2022/10/23 07:11:09;;;;;;;;;;;23.00;99.90;;;;;;5012317;28;19901;-53
2022/10/23 07:13:35;;;;;;;;;;;23.00;99.90;;;;;;5012109;28;19940;-53
2022/10/23 07:16:15;;;;;;;;;;;23.00;99.90;;;;;;5011905;28;19961;-52
2022/10/23 07:18:41;;;;;;;;;;;23.00;99.90;;;;;;5012332;28;19905;-52
2022/10/23 07:21:07;;;;;;;;;;;23.00;99.90;;;;;;5012316;28;19911;-53
2022/10/23 07:23:32;;;;;;;;;;;23.00;99.90;;;;;;5011982;28;19913;-54
2022/10/23 07:26:02;;;;;;;;;;;23.00;99.90;;;;;;5012187;28;19913;-51
2022/10/23 07:28:28;;;;;;;;;;;23.00;99.90;;;;;;5011934;28;19909;-51
2022/10/23 07:30:57;;;;;;;;;;;23.10;99.90;;;;;;5011826;28;19905;-51
2022/10/23 07:33:23;;;;;;;;;;;23.10;99.90;;;;;;5011838;28;19913;-52
2022/10/23 07:35:49;;;;;;;;;;;23.10;99.90;;;;;;5012015;28;20277;-54
2022/10/23 07:38:14;;;;;;;;;;;23.10;99.90;;;;;;5011861;28;19909;-54
2022/10/23 07:40:40;;;;;;;;;;;23.10;99.90;;;;;;5012038;28;19906;-54
2022/10/23 07:43:05;;;;;;;;;;;23.20;99.90;;;;;;5011841;28;19910;-53
2022/10/23 07:45:31;;;;;;;;;;;23.20;99.90;;;;;;5011900;28;20012;-53
2022/10/23 07:47:56;;;;;;;;;;;23.20;99.90;;;;;;5013704;28;19951;-53
2022/10/23 07:50:22;;;;;;;;;;;23.20;99.90;;;;;;5015415;28;19910;-53
2022/10/23 07:52:48;;;;;;;;;;;23.20;99.90;;;;;;5015448;28;19997;-53
2022/10/23 07:55:13;;;;;;;;;;;23.30;99.90;;;;;;5014970;28;19905;-53
2022/10/23 07:57:39;;;;;;;;;;;23.30;99.90;;;;;;5015264;28;19984;-53
2022/10/23 08:00:05;;;;;;;;;;;23.30;99.90;;;;;;5014995;28;19909;-53
2022/10/23 08:02:31;;;;;;;;;;;23.40;99.90;;;;;;5014719;28;20420;-53
2022/10/23 08:04:56;;;;;;;;;;;23.40;99.90;;;;;;5030204;28;19988;-52
2022/10/23 08:07:22;;;;;;;;;;;23.40;99.90;;;;;;5014955;28;19991;-53
2022/10/23 08:09:47;;;;;;;;;;;23.50;99.90;;;;;;5014766;28;20291;-53
2022/10/23 08:12:13;;;;;;;;;;;23.50;99.90;;;;;;5014806;28;19925;-52
2022/10/23 08:14:39;;;;;;;;;;;23.60;99.90;;;;;;5030113;28;20412;-52
2022/10/23 08:17:08;;;;;;;;;;;23.60;99.90;;;;;;5014791;28;19914;-52
2022/10/23 08:19:34;;;;;;;;;;;23.60;99.90;;;;;;5014546;28;19905;-53
2022/10/23 08:22:00;;;;;;;;;;;23.70;99.90;;;;;;5014857;28;19905;-53
2022/10/23 08:24:26;;;;;;;;;;;23.70;99.90;;;;;;5014451;28;20277;-53
2022/10/23 08:26:51;;;;;;;;;;;23.80;99.90;;;;;;5014688;28;20301;-53
2022/10/23 08:29:17;;;;;;;;;;;23.80;99.90;;;;;;5014543;28;19911;-53
2022/10/23 08:31:43;;;;;;;;;;;23.80;99.90;;;;;;5014425;28;19912;-53
2022/10/23 08:34:09;;;;;;;;;;;23.80;99.90;;;;;;5029546;28;20043;-53
2022/10/23 08:36:35;;;;;;;;;;;23.80;99.90;;;;;;5014473;28;19905;-53
2022/10/23 08:39:01;;;;;;;;;;;23.90;99.90;;;;;;5013979;28;19906;-54
2022/10/23 08:42:02;;;;;;;;;;;23.90;99.90;;;;;;5014250;28;19997;-53
2022/10/23 08:44:27;;;;;;;;;;;23.90;99.90;;;;;;4953532;29;20013;-53
2022/10/23 08:47:05;;;;;;;;;;;23.90;99.90;;;;;;5001381;28;19944;-55
2022/10/23 08:49:41;;;;;;;;;;;23.90;99.90;;;;;;5014221;28;19906;-54
2022/10/23 08:52:13;;;;;;;;;;;23.90;99.90;;;;;;5014000;28;19909;-53
2022/10/23 08:54:41;;;;;;;;;;;24.00;99.90;;;;;;5013748;28;19996;-54
2022/10/23 08:57:13;;;;;;;;;;;23.90;99.90;;;;;;5013752;28;20367;-54
2022/10/23 08:59:51;;;;;;;;;;;24.00;99.90;;;;;;5012726;28;19947;-54
2022/10/23 09:02:23;;;;;;;;;;;24.00;99.90;;;;;;5013732;28;19949;-53
2022/10/23 09:04:50;;;;;;;;;;;24.00;99.90;;;;;;5013665;28;19913;-54
2022/10/23 09:07:34;;;;;;;;;;;24.00;99.90;;;;;;5012592;28;19905;-53
2022/10/23 09:10:06;;;;;;;;;;;24.10;99.90;;;;;;5013526;28;19912;-53
2022/10/23 09:12:32;;;;;;;;;;;24.10;99.90;;;;;;5011976;28;19921;-53
2022/10/23 09:15:10;;;;;;;;;;;24.10;99.90;;;;;;5013694;28;19909;-53
2022/10/23 09:17:38;;;;;;;;;;;24.10;99.90;;;;;;5013431;28;19983;-53
2022/10/23 09:20:23;;;;;;;;;;;24.10;99.90;;;;;;5013616;28;19975;-53
2022/10/23 09:22:51;;;;;;;;;;;24.20;99.90;;;;;;5013598;28;19909;-53
2022/10/23 09:25:19;;;;;;;;;;;24.20;99.90;;;;;;5013374;28;19913;-53
2022/10/23 09:27:49;;;;;;;;;;;24.20;99.90;;;;;;5013540;28;19988;-53
2022/10/23 09:30:30;;;;;;;;;;;24.20;99.90;;;;;;5013689;28;20422;-53
2022/10/23 09:32:56;;;;;;;;;;;24.20;99.90;;;;;;5013297;28;19906;-53
2022/10/23 09:35:23;;;;;;;;;;;24.20;99.90;;;;;;5013332;28;19913;-53
2022/10/23 09:37:52;;;;;;;;;;;24.20;99.90;;;;;;5013299;28;19957;-54
2022/10/23 09:40:23;;;;;;;;;;;24.30;99.90;;;;;;5013041;28;19909;-53
2022/10/23 09:42:53;;;;;;;;;;;24.30;99.90;;;;;;5013079;28;19952;-53
2022/10/23 09:45:45;;;;;;;;;;;24.30;99.90;;;;;;5013113;28;19983;-53
2022/10/23 09:48:11;;;;;;;;;;;24.30;99.90;;;;;;5010019;28;19906;-53
2022/10/23 09:50:36;;;;;;;;;;;24.30;99.90;;;;;;5011906;28;20333;-53
2022/10/23 09:53:02;;;;;;;;;;;24.30;99.90;;;;;;5011561;28;19906;-54
2022/10/23 09:55:28;;;;;;;;;;;24.40;99.90;;;;;;5028216;28;19956;-53
2022/10/23 09:57:54;;;;;;;;;;;24.40;99.90;;;;;;5013001;28;20361;-54
2022/10/23 10:00:21;;;;;;;;;;;24.40;99.90;;;;;;5012757;28;19945;-53
2022/10/23 10:02:54;;;;;;;;;;;24.50;99.90;;;;;;5013072;28;19906;-53
2022/10/23 10:05:22;;;;;;;;;;;24.50;99.90;;;;;;5012837;28;20428;-54
2022/10/23 10:08:02;;;;;;;;;;;24.60;99.90;;;;;;5013126;28;19905;-53
2022/10/23 10:10:32;;;;;;;;;;;24.60;99.90;;;;;;5012271;28;19905;-53
2022/10/23 10:13:00;;;;;;;;;;;24.70;99.90;;;;;;5012695;28;20361;-54
2022/10/23 10:15:44;;;;;;;;;;;24.70;99.90;;;;;;5012810;28;19928;-54
2022/10/23 10:18:09;;;;;;;;;;;24.80;99.90;;;;;;5012728;28;19909;-54
2022/10/23 10:20:38;;;;;;;;;;;24.80;99.90;;;;;;5012729;28;20009;-54
2022/10/23 10:23:22;;;;;;;;;;;24.90;99.90;;;;;;5011385;28;19968;-54
2022/10/23 10:25:58;;;;;;;;;;;25.00;99.90;;;;;;5012752;28;19943;-54
2022/10/23 10:28:29;;;;;;;;;;;25.00;99.90;;;;;;5012507;28;19916;-54
2022/10/23 10:31:13;;;;;;;;;;;25.00;99.90;;;;;;5012479;28;20349;-54
2022/10/23 10:33:51;;;;;;;;;;;25.00;99.90;;;;;;5011097;28;20353;-54
2022/10/23 10:36:37;;;;;;;;;;;25.00;99.90;;;;;;5012536;28;20217;-53
2022/10/23 10:39:04;;;;;;;;;;;25.00;99.90;;;;;;5001522;28;19913;-54
2022/10/23 10:41:42;;;;;;;;;;;25.00;99.90;;;;;;5012663;28;19959;-54
2022/10/23 10:44:08;;;;;;;;;;;25.00;99.90;;;;;;5012015;28;20307;-54
2022/10/23 10:46:53;;;;;;;;;;;25.00;99.90;;;;;;5012210;28;19912;-54
2022/10/23 10:49:27;;;;;;;;;;;25.00;99.90;;;;;;4997483;28;19975;-54
2022/10/23 10:52:11;;;;;;;;;;;25.10;99.90;;;;;;5012260;28;19917;-54
2022/10/23 10:54:37;;;;;;;;;;;25.10;99.90;;;;;;5012035;28;19906;-54
2022/10/23 10:57:04;;;;;;;;;;;25.20;99.90;;;;;;5012189;28;19913;-53
2022/10/23 10:59:33;;;;;;;;;;;25.30;99.90;;;;;;5012382;28;19928;-54
2022/10/23 11:02:19;;;;;;;;;;;25.30;99.90;;;;;;5011981;28;19901;-54
2022/10/23 11:04:50;;;;;;;;;;;25.30;99.90;;;;;;5011784;28;19917;-54
2022/10/23 11:07:19;;;;;;;;;;;25.40;99.90;;;;;;5012276;28;19905;-54
2022/10/23 11:09:45;;;;;;;;;;;25.40;99.90;;;;;;5010878;28;19906;-54
2022/10/23 11:12:16;;;;;;;;;;;25.40;99.90;;;;;;5012053;28;19928;-54
2022/10/23 11:14:42;;;;;;;;;;;25.50;99.90;;;;;;5012372;28;20043;-54
2022/10/23 11:17:19;;;;;;;;;;;25.50;99.90;;;;;;5010564;28;19940;-54
2022/10/23 11:19:51;;;;;;;;;;;25.50;99.90;;;;;;5012216;28;19983;-54
2022/10/23 11:22:16;;;;;;;;;;;25.60;99.90;;;;;;5013305;28;19913;-54
2022/10/23 11:24:55;;;;;;;;;;;25.60;99.90;;;;;;5015562;28;19913;-54
2022/10/23 11:27:50;;;;;;;;;;;25.70;99.90;;;;;;5016022;28;20278;-53
2022/10/23 11:30:23;;;;;;;;;;;25.80;99.90;;;;;;5002689;28;20372;-53
2022/10/23 11:33:25;;;;;;;;;;;25.80;99.90;;;;;;5014383;28;20261;-54
2022/10/23 11:36:03;;;;;;;;;;;25.90;99.90;;;;;;4955446;29;19961;-53
2022/10/23 11:38:32;;;;;;;;;;;25.90;99.90;;;;;;5008299;28;19909;-53
2022/10/23 11:40:59;;;;;;;;;;;26.00;99.90;;;;;;5015743;28;19983;-54
2022/10/23 11:43:30;;;;;;;;;;;26.00;99.90;;;;;;5015524;28;20277;-53
2022/10/23 11:45:56;;;;;;;;;;;26.00;99.90;;;;;;5015162;28;19914;-54
2022/10/23 11:48:36;;;;;;;;;;;26.10;99.90;;;;;;5015630;28;19955;-53
2022/10/23 11:51:02;;;;;;;;;;;26.10;99.90;;;;;;5015519;28;20269;-53
2022/10/23 11:53:31;;;;;;;;;;;26.10;99.90;;;;;;5015129;28;19906;-54
2022/10/23 11:56:23;;;;;;;;;;;26.10;99.90;;;;;;5015246;28;19992;-54
2022/10/23 11:58:50;;;;;;;;;;;26.00;99.90;;;;;;5013134;28;20312;-58
2022/10/23 12:01:23;;;;;;;;;;;26.10;99.90;;;;;;5014860;28;20005;-54
2022/10/23 12:03:58;;;;;;;;;;;26.00;99.90;;;;;;5014982;28;20376;-54
2022/10/23 12:06:25;;;;;;;;;;;26.00;99.90;;;;;;5015126;28;19909;-53
2022/10/23 12:08:53;;;;;;;;;;;26.00;99.90;;;;;;5015098;28;19905;-54
2022/10/23 12:11:27;;;;;;;;;;;26.00;99.90;;;;;;5014861;28;19912;-53
2022/10/23 12:13:52;;;;;;;;;;;26.00;99.90;;;;;;5014820;28;19918;-53
2022/10/23 12:16:18;;;;;;;;;;;26.10;99.90;;;;;;5014752;28;19928;-53
2022/10/23 12:18:45;;;;;;;;;;;26.10;99.90;;;;;;5014808;28;19992;-54
2022/10/23 12:21:33;;;;;;;;;;;26.20;99.90;;;;;;5014631;28;19913;-54
2022/10/23 12:24:02;;;;;;;;;;;26.30;99.90;;;;;;5014476;28;19992;-53
2022/10/23 12:26:38;;;;;;;;;;;26.30;99.90;;;;;;5014403;28;19905;-53
2022/10/23 12:29:21;;;;;;;;;;;26.40;99.90;;;;;;5014180;28;19987;-52
2022/10/23 12:31:47;;;;;;;;;;;26.40;99.90;;;;;;5005120;28;19910;-54
2022/10/23 12:34:13;;;;;;;;;;;26.40;99.90;;;;;;5007877;28;19936;-53
2022/10/23 12:36:59;;;;;;;;;;;26.40;99.90;;;;;;5010177;28;20089;-52
2022/10/23 12:39:29;;;;;;;;;;;26.40;99.90;;;;;;5013776;28;20408;-53
2022/10/23 12:41:55;;;;;;;;;;;26.40;99.90;;;;;;5014466;28;19905;-53
2022/10/23 12:44:21;;;;;;;;;;;26.50;99.90;;;;;;5013593;28;20016;-53
2022/10/23 12:46:47;;;;;;;;;;;26.50;99.90;;;;;;5011528;28;19910;-55
2022/10/23 12:49:14;;;;;;;;;;;26.50;99.90;;;;;;5012832;28;19932;-53
2022/10/23 12:51:40;;;;;;;;;;;26.50;99.90;;;;;;5012923;28;19912;-53
2022/10/23 12:54:16;;;;;;;;;;;26.50;99.90;;;;;;5013609;28;19910;-53
2022/10/23 12:56:43;;;;;;;;;;;26.50;99.90;;;;;;5019766;28;19905;-55
2022/10/23 12:59:17;;;;;;;;;;;26.50;99.90;;;;;;5021656;28;20361;-55
2022/10/23 13:01:42;;;;;;;;;;;26.50;99.90;;;;;;5004543;28;19913;-54
2022/10/23 13:04:11;;;;;;;;;;;26.50;99.90;;;;;;5010105;28;20414;-54
2022/10/23 13:06:40;;;;;;;;;;;26.50;99.90;;;;;;5008155;28;19952;-54
2022/10/23 13:09:11;;;;;;;;;;;26.50;99.90;;;;;;4992570;28;20358;-55
2022/10/23 13:11:37;;;;;;;;;;;26.50;99.90;;;;;;5001130;28;20384;-54
2022/10/23 13:14:09;;;;;;;;;;;26.50;99.90;;;;;;5013744;28;19964;-54
2022/10/23 13:16:35;;;;;;;;;;;26.50;99.90;;;;;;5013201;28;19909;-53
2022/10/23 13:19:01;;;;;;;;;;;26.50;99.90;;;;;;5006158;28;20251;-54
2022/10/23 13:21:28;;;;;;;;;;;26.50;99.90;;;;;;4994990;28;19961;-54
2022/10/23 13:23:54;;;;;;;;;;;26.60;99.90;;;;;;4992409;28;19913;-56
2022/10/23 13:26:23;;;;;;;;;;;26.60;99.90;;;;;;4998245;28;19987;-52
2022/10/23 13:28:49;;;;;;;;;;;26.60;99.90;;;;;;4999641;28;19941;-52
2022/10/23 13:31:15;;;;;;;;;;;26.60;99.90;;;;;;4992373;28;19953;-50
2022/10/23 13:33:45;;;;;;;;;;;26.70;99.90;;;;;;4993689;28;20317;-54
2022/10/23 13:36:13;;;;;;;;;;;26.70;99.90;;;;;;5010106;28;20409;-56
2022/10/23 13:39:02;;;;;;;;;;;26.70;99.90;;;;;;5013237;28;19987;-53
2022/10/23 13:41:29;;;;;;;;;;;26.80;99.90;;;;;;5005568;28;19905;-51
2022/10/23 13:43:55;;;;;;;;;;;26.80;99.90;;;;;;4999397;28;19905;-53
2022/10/23 13:46:23;;;;;;;;;;;26.80;99.90;;;;;;5004845;28;19920;-55
2022/10/23 13:48:48;;;;;;;;;;;26.80;99.90;;;;;;5007812;28;19912;-52
2022/10/23 13:51:15;;;;;;;;;;;26.80;99.90;;;;;;5006297;28;19914;-53
2022/10/23 13:53:41;;;;;;;;;;;26.70;99.90;;;;;;5006037;28;20282;-53
2022/10/23 13:56:09;;;;;;;;;;;26.70;99.90;;;;;;5011042;28;19906;-53
2022/10/23 13:58:35;;;;;;;;;;;26.70;99.90;;;;;;5006679;28;19985;-52
2022/10/23 14:01:00;;;;;;;;;;;26.70;99.90;;;;;;5010821;28;19945;-52
2022/10/23 14:03:26;;;;;;;;;;;26.70;99.90;;;;;;5009785;28;19912;-52
2022/10/23 14:05:52;;;;;;;;;;;26.60;99.90;;;;;;5010382;28;19923;-53
2022/10/23 14:08:18;;;;;;;;;;;26.60;99.90;;;;;;5009295;28;20235;-52
2022/10/23 14:10:43;;;;;;;;;;;26.60;99.90;;;;;;5006448;28;19969;-51
2022/10/23 14:13:09;;;;;;;;;;;26.60;99.90;;;;;;5008830;28;19917;-53
2022/10/23 14:15:34;;;;;;;;;;;26.60;99.90;;;;;;5007722;28;20756;-52
2022/10/23 14:18:00;;;;;;;;;;;26.60;99.90;;;;;;5005426;28;19913;-53
2022/10/23 14:20:26;;;;;;;;;;;26.60;99.90;;;;;;5010074;28;19912;-54
2022/10/23 14:22:51;;;;;;;;;;;26.60;99.90;;;;;;5010383;28;19909;-53
2022/10/23 14:25:17;;;;;;;;;;;26.70;99.90;;;;;;5010368;28;19913;-53
2022/10/23 14:27:43;;;;;;;;;;;26.70;99.90;;;;;;5010759;28;19952;-52
2022/10/23 14:30:09;;;;;;;;;;;26.70;99.90;;;;;;5009997;28;19933;-53
2022/10/23 14:32:35;;;;;;;;;;;26.70;99.90;;;;;;5008669;28;19952;-52